Oberon — SKJF — position and weather

sailwx.info

Track history (hours):
 
Tides and Currents Weather Stations Pressure Air Temp Water Temp Dewpoint Dewpoint Depression Visibility Wind Speed Wind Dir Waves Ship Positions

Oberon

Last reported at 2015-May-23 00:32 UTC. Time now 2015-May-28 18:13 UTC.
Position S 38°38' E 140°30'.

Length 232 m; draft 8.7 m.

Type: Cargo ship. MMSI: 266283000.

Date/timePositionNaut miles runAvg speedWind from/ knotsBaromVisibWave heightAir tempDewpointWater temp
2015-May-23 00:32S 38°38' E 140°30'2019.5
2015-May-22 23:31S 38°41' E 140°55'1918.9
2015-May-22 22:32S 38°44' E 141°18'1818.2
2015-May-22 21:33S 38°47' E 141°41'1918.8
2015-May-22 20:33S 38°50' E 142°05'1919.1
2015-May-22 19:32S 38°52' E 142°29'2019.7
2015-May-22 18:33S 38°55' E 142°54'2019.5
2015-May-22 17:32S 38°60' E 143°19'1818.0
2015-May-22 16:33S 38°59' E 143°42'1818.1
2015-May-22 15:33S 38°47' E 143°59'85 2.3
2015-May-21 02:33S 38°59' E 145°46'1717.0
2015-May-21 01:33S 39°07' E 146°05'1515.2
2015-May-21 00:33S 39°10' E 146°24'1717.1
2015-May-20 23:33S 39°05' E 146°45'1717.5
2015-May-20 22:33S 38°60' E 147°07'1717.3
2015-May-20 21:33S 38°54' E 147°28'5216.8
2015-May-20 18:28S 38°35' E 148°30'1617.2
2015-May-20 17:33S 38°26' E 148°47'2117.1
2015-May-20 16:19S 38°15' E 149°09'3016.9
2015-May-20 14:33S 37°57' E 149°39'1717.0
2015-May-20 13:33S 37°46' E 149°56'1717.4
2015-May-20 12:32S 37°36' E 150°14'1717.6
2015-May-20 11:33S 37°19' E 150°20'230 8.1
2015-May-19 07:17S 33°40' E 151°49'1818.8
2015-May-19 06:21S 33°25' E 151°59'1417.6
2015-May-19 05:33S 33°13' E 152°08'1918.3
2015-May-19 04:33S 33°01' E 152°25'1919.1
2015-May-19 03:33S 32°46' E 152°39'2118.8
2015-May-19 02:26S 32°29' E 152°53'26318.6
2015-May-18 12:18S 28°11' E 153°50'1518.7
2015-May-18 11:30S 27°56' E 153°49'1818.7
2015-May-18 10:33S 27°38' E 153°47'1918.6
2015-May-18 09:33S 27°20' E 153°45'1616.5
2015-May-18 08:33S 27°04' E 153°41'1615.6
2015-May-18 07:33S 26°50' E 153°32'1616.0
2015-May-18 06:33S 26°43' E 153°16'1110.7
2015-May-18 05:33S 26°51' E 153°09'1918.8
2015-May-18 04:33S 27°07' E 153°21'1615.3
2015-May-18 03:31S 27°21' E 153°11'2 1.8
2015-May-18 02:30S 27°23' E 153°10'0 0.0
2015-May-17 20:21S 27°23' E 153°10'0 0.0
2015-May-17 06:24S 27°23' E 153°10'0 0.0
2015-May-17 05:33S 27°23' E 153°10'0 0.0
2015-May-17 04:33S 27°23' E 153°10'0 0.0
2015-May-17 03:33S 27°23' E 153°10'0 0.0
2015-May-17 02:33S 27°23' E 153°10'0 0.0
2015-May-17 01:33S 27°23' E 153°10'0 0.0
2015-May-17 00:33S 27°23' E 153°10'0 0.0
2015-May-16 23:06S 27°23' E 153°10'0 0.0
2015-May-16 22:30S 27°23' E 153°10'0 0.0
2015-May-16 21:33S 27°23' E 153°10'0 0.0
2015-May-16 20:33S 27°23' E 153°10'0 0.0
2015-May-16 19:34S 27°23' E 153°10'0 0.0
2015-May-16 18:30S 27°23' E 153°10'0 0.0
2015-May-16 17:34S 27°23' E 153°10'0 0.0
2015-May-16 16:33S 27°23' E 153°10'0 0.2
2015-May-16 15:33S 27°22' E 153°10'1111.4
2015-May-16 14:33S 27°15' E 153°19'1515.0
2015-May-16 13:34S 27°00' E 153°14'1312.7
2015-May-16 12:34S 26°48' E 153°12'5 5.3
2015-May-16 11:32S 26°43' E 153°14'1111.2
2015-May-16 10:33S 26°43' E 153°26'1313.4
2015-May-16 09:33S 26°44' E 153°41'1715.5
2015-May-16 08:27S 26°45' E 154°01'  
Track history (hours):
 
Tides and Currents Weather Stations Pressure Air Temp Water Temp Dewpoint Dewpoint Depression Visibility Wind Speed Wind Dir Waves Ship Positions

Oberon

Last reported at 2015-May-23 00:32 UTC. Time now 2015-May-28 18:13 UTC.
Position S 38°38' E 140°30'.

Length 232 m; draft 8.7 m.

Type: Cargo ship. MMSI: 266283000.

Date/timePositionNaut miles runAvg speedWind from/ knotsBaromVisibWave heightAir tempDewpointWater temp
2015-May-23 00:32S 38°38' E 140°30'2019.5
2015-May-22 23:31S 38°41' E 140°55'1918.9
2015-May-22 22:32S 38°44' E 141°18'1818.2
2015-May-22 21:33S 38°47' E 141°41'1918.8
2015-May-22 20:33S 38°50' E 142°05'1919.1
2015-May-22 19:32S 38°52' E 142°29'2019.7
2015-May-22 18:33S 38°55' E 142°54'2019.5
2015-May-22 17:32S 38°60' E 143°19'1818.0
2015-May-22 16:33S 38°59' E 143°42'1818.1
2015-May-22 15:33S 38°47' E 143°59'85 2.3
2015-May-21 02:33S 38°59' E 145°46'1717.0
2015-May-21 01:33S 39°07' E 146°05'1515.2
2015-May-21 00:33S 39°10' E 146°24'1717.1
2015-May-20 23:33S 39°05' E 146°45'1717.5
2015-May-20 22:33S 38°60' E 147°07'1717.3
2015-May-20 21:33S 38°54' E 147°28'5216.8
2015-May-20 18:28S 38°35' E 148°30'1617.2
2015-May-20 17:33S 38°26' E 148°47'2117.1
2015-May-20 16:19S 38°15' E 149°09'3016.9
2015-May-20 14:33S 37°57' E 149°39'1717.0
2015-May-20 13:33S 37°46' E 149°56'1717.4
2015-May-20 12:32S 37°36' E 150°14'1717.6
2015-May-20 11:33S 37°19' E 150°20'230 8.1
2015-May-19 07:17S 33°40' E 151°49'1818.8
2015-May-19 06:21S 33°25' E 151°59'1417.6
2015-May-19 05:33S 33°13' E 152°08'1918.3
2015-May-19 04:33S 33°01' E 152°25'1919.1
2015-May-19 03:33S 32°46' E 152°39'2118.8
2015-May-19 02:26S 32°29' E 152°53'26318.6
2015-May-18 12:18S 28°11' E 153°50'1518.7
2015-May-18 11:30S 27°56' E 153°49'1818.7
2015-May-18 10:33S 27°38' E 153°47'1918.6
2015-May-18 09:33S 27°20' E 153°45'1616.5
2015-May-18 08:33S 27°04' E 153°41'1615.6
2015-May-18 07:33S 26°50' E 153°32'1616.0
2015-May-18 06:33S 26°43' E 153°16'1110.7
2015-May-18 05:33S 26°51' E 153°09'1918.8
2015-May-18 04:33S 27°07' E 153°21'1615.3
2015-May-18 03:31S 27°21' E 153°11'2 1.8
2015-May-18 02:30S 27°23' E 153°10'0 0.0
2015-May-17 20:21S 27°23' E 153°10'0 0.0
2015-May-17 06:24S 27°23' E 153°10'0 0.0
2015-May-17 05:33S 27°23' E 153°10'0 0.0
2015-May-17 04:33S 27°23' E 153°10'0 0.0
2015-May-17 03:33S 27°23' E 153°10'0 0.0
2015-May-17 02:33S 27°23' E 153°10'0 0.0
2015-May-17 01:33S 27°23' E 153°10'0 0.0
2015-May-17 00:33S 27°23' E 153°10'0 0.0
2015-May-16 23:06S 27°23' E 153°10'0 0.0
2015-May-16 22:30S 27°23' E 153°10'0 0.0
2015-May-16 21:33S 27°23' E 153°10'0 0.0
2015-May-16 20:33S 27°23' E 153°10'0 0.0
2015-May-16 19:34S 27°23' E 153°10'0 0.0
2015-May-16 18:30S 27°23' E 153°10'0 0.0
2015-May-16 17:34S 27°23' E 153°10'0 0.0
2015-May-16 16:33S 27°23' E 153°10'0 0.2
2015-May-16 15:33S 27°22' E 153°10'1111.4
2015-May-16 14:33S 27°15' E 153°19'1515.0
2015-May-16 13:34S 27°00' E 153°14'1312.7
2015-May-16 12:34S 26°48' E 153°12'5 5.3
2015-May-16 11:32S 26°43' E 153°14'1111.2
2015-May-16 10:33S 26°43' E 153°26'1313.4
2015-May-16 09:33S 26°44' E 153°41'1715.5
2015-May-16 08:27S 26°45' E 154°01'  

Dump ship's entire track history